sensor_id;sensor_type;location;lat;lon;timestamp;temperature;humidity
60909;DHT22;46780;48.128;-1.704;2022-10-26T00:01:55;17.20;97.40
60909;DHT22;46780;48.128;-1.704;2022-10-26T00:04:22;17.10;96.90
60909;DHT22;46780;48.128;-1.704;2022-10-26T00:06:48;17.20;97.30
60909;DHT22;46780;48.128;-1.704;2022-10-26T00:09:15;17.20;97.30
60909;DHT22;46780;48.128;-1.704;2022-10-26T00:11:43;17.20;97.10
60909;DHT22;46780;48.128;-1.704;2022-10-26T00:14:09;17.20;97.30
60909;DHT22;46780;48.128;-1.704;2022-10-26T00:16:36;17.20;97.50
60909;DHT22;46780;48.128;-1.704;2022-10-26T00:19:02;17.20;97.40
60909;DHT22;46780;48.128;-1.704;2022-10-26T00:21:29;17.10;97.20
60909;DHT22;46780;48.128;-1.704;2022-10-26T00:23:57;17.10;97.60
60909;DHT22;46780;48.128;-1.704;2022-10-26T00:26:24;17.40;97.30
60909;DHT22;46780;48.128;-1.704;2022-10-26T00:28:53;17.10;97.90
60909;DHT22;46780;48.128;-1.704;2022-10-26T00:31:20;17.20;97.60
60909;DHT22;46780;48.128;-1.704;2022-10-26T00:33:48;17.30;98.20
60909;DHT22;46780;48.128;-1.704;2022-10-26T00:36:17;17.20;97.60
60909;DHT22;46780;48.128;-1.704;2022-10-26T00:38:47;17.10;98.00
60909;DHT22;46780;48.128;-1.704;2022-10-26T00:41:15;17.20;98.00
60909;DHT22;46780;48.128;-1.704;2022-10-26T00:43:41;17.30;98.30
60909;DHT22;46780;48.128;-1.704;2022-10-26T00:46:12;17.10;98.10
60909;DHT22;46780;48.128;-1.704;2022-10-26T00:48:43;17.20;98.20
60909;DHT22;46780;48.128;-1.704;2022-10-26T00:51:17;17.30;98.20
60909;DHT22;46780;48.128;-1.704;2022-10-26T00:53:46;17.20;98.10
60909;DHT22;46780;48.128;-1.704;2022-10-26T00:56:13;17.20;98.30
60909;DHT22;46780;48.128;-1.704;2022-10-26T00:58:39;17.30;98.80
60909;DHT22;46780;48.128;-1.704;2022-10-26T01:01:06;17.30;98.50
60909;DHT22;46780;48.128;-1.704;2022-10-26T01:03:35;17.40;98.40
60909;DHT22;46780;48.128;-1.704;2022-10-26T01:06:03;17.40;99.20
60909;DHT22;46780;48.128;-1.704;2022-10-26T01:08:31;17.40;98.70
60909;DHT22;46780;48.128;-1.704;2022-10-26T01:10:58;17.40;98.90
60909;DHT22;46780;48.128;-1.704;2022-10-26T01:13:27;17.30;98.90
60909;DHT22;46780;48.128;-1.704;2022-10-26T01:16:11;17.40;99.20
60909;DHT22;46780;48.128;-1.704;2022-10-26T01:18:49;17.30;99.10
60909;DHT22;46780;48.128;-1.704;2022-10-26T01:21:39;17.40;99.40
60909;DHT22;46780;48.128;-1.704;2022-10-26T01:24:22;17.40;99.40
60909;DHT22;46780;48.128;-1.704;2022-10-26T01:27:03;17.30;99.60
60909;DHT22;46780;48.128;-1.704;2022-10-26T01:29:57;17.30;99.60
60909;DHT22;46780;48.128;-1.704;2022-10-26T01:32:31;17.30;99.70
60909;DHT22;46780;48.128;-1.704;2022-10-26T01:35:04;17.10;99.90
60909;DHT22;46780;48.128;-1.704;2022-10-26T01:37:36;17.60;99.90
60909;DHT22;46780;48.128;-1.704;2022-10-26T01:40:09;17.30;99.90
60909;DHT22;46780;48.128;-1.704;2022-10-26T01:42:41;17.30;99.90
60909;DHT22;46780;48.128;-1.704;2022-10-26T01:45:10;17.30;99.90
60909;DHT22;46780;48.128;-1.704;2022-10-26T01:47:40;17.10;99.90
60909;DHT22;46780;48.128;-1.704;2022-10-26T01:50:08;17.20;99.90
60909;DHT22;46780;48.128;-1.704;2022-10-26T01:52:35;17.10;99.90
60909;DHT22;46780;48.128;-1.704;2022-10-26T01:55:04;17.10;99.90
60909;DHT22;46780;48.128;-1.704;2022-10-26T01:57:33;17.10;99.90
60909;DHT22;46780;48.128;-1.704;2022-10-26T02:00:04;17.10;99.90
60909;DHT22;46780;48.128;-1.704;2022-10-26T02:05:47;17.20;99.90
60909;DHT22;46780;48.128;-1.704;2022-10-26T02:08:44;17.20;99.90
60909;DHT22;46780;48.128;-1.704;2022-10-26T02:11:24;17.20;99.90
60909;DHT22;46780;48.128;-1.704;2022-10-26T02:13:59;17.00;99.90
60909;DHT22;46780;48.128;-1.704;2022-10-26T02:16:31;17.00;99.90
60909;DHT22;46780;48.128;-1.704;2022-10-26T02:19:04;17.10;99.90
60909;DHT22;46780;48.128;-1.704;2022-10-26T02:21:37;17.00;99.90
60909;DHT22;46780;48.128;-1.704;2022-10-26T02:24:06;17.10;99.90
60909;DHT22;46780;48.128;-1.704;2022-10-26T02:26:35;16.90;99.70
60909;DHT22;46780;48.128;-1.704;2022-10-26T02:29:06;17.10;99.70
60909;DHT22;46780;48.128;-1.704;2022-10-26T02:31:34;17.10;99.70
60909;DHT22;46780;48.128;-1.704;2022-10-26T02:34:05;16.90;99.40
60909;DHT22;46780;48.128;-1.704;2022-10-26T02:36:35;17.00;99.50
60909;DHT22;46780;48.128;-1.704;2022-10-26T02:39:04;17.00;99.50
60909;DHT22;46780;48.128;-1.704;2022-10-26T02:41:32;17.20;99.60
60909;DHT22;46780;48.128;-1.704;2022-10-26T02:44:04;16.90;99.50
60909;DHT22;46780;48.128;-1.704;2022-10-26T02:46:33;16.90;99.50
60909;DHT22;46780;48.128;-1.704;2022-10-26T02:49:00;17.00;99.70
60909;DHT22;46780;48.128;-1.704;2022-10-26T02:51:33;17.00;99.50
60909;DHT22;46780;48.128;-1.704;2022-10-26T02:54:12;17.00;99.20
60909;DHT22;46780;48.128;-1.704;2022-10-26T02:56:42;16.90;99.50
60909;DHT22;46780;48.128;-1.704;2022-10-26T02:59:12;16.80;99.50
60909;DHT22;46780;48.128;-1.704;2022-10-26T03:01:39;17.20;99.60
60909;DHT22;46780;48.128;-1.704;2022-10-26T03:04:07;16.80;99.50
60909;DHT22;46780;48.128;-1.704;2022-10-26T03:06:35;16.80;99.80
60909;DHT22;46780;48.128;-1.704;2022-10-26T03:09:01;16.80;99.60
60909;DHT22;46780;48.128;-1.704;2022-10-26T03:11:28;16.90;99.80
60909;DHT22;46780;48.128;-1.704;2022-10-26T03:13:54;16.90;99.80
60909;DHT22;46780;48.128;-1.704;2022-10-26T03:16:21;16.90;99.70
60909;DHT22;46780;48.128;-1.704;2022-10-26T03:18:47;16.90;99.70
60909;DHT22;46780;48.128;-1.704;2022-10-26T03:21:14;16.80;99.90
60909;DHT22;46780;48.128;-1.704;2022-10-26T03:23:42;17.00;99.80
60909;DHT22;46780;48.128;-1.704;2022-10-26T03:26:08;16.80;99.90
60909;DHT22;46780;48.128;-1.704;2022-10-26T03:28:35;16.80;99.90
60909;DHT22;46780;48.128;-1.704;2022-10-26T03:31:02;16.80;99.80
60909;DHT22;46780;48.128;-1.704;2022-10-26T03:33:28;16.80;99.90
60909;DHT22;46780;48.128;-1.704;2022-10-26T03:35:55;16.90;99.90
60909;DHT22;46780;48.128;-1.704;2022-10-26T03:38:22;16.80;99.90
60909;DHT22;46780;48.128;-1.704;2022-10-26T03:40:50;16.70;99.90
60909;DHT22;46780;48.128;-1.704;2022-10-26T03:43:17;16.90;99.90
60909;DHT22;46780;48.128;-1.704;2022-10-26T03:45:45;16.70;99.90
60909;DHT22;46780;48.128;-1.704;2022-10-26T03:48:12;16.70;99.90
60909;DHT22;46780;48.128;-1.704;2022-10-26T03:50:58;16.80;99.90
60909;DHT22;46780;48.128;-1.704;2022-10-26T03:53:25;16.90;99.90
60909;DHT22;46780;48.128;-1.704;2022-10-26T03:55:52;16.80;99.90
60909;DHT22;46780;48.128;-1.704;2022-10-26T03:58:19;16.70;99.90
60909;DHT22;46780;48.128;-1.704;2022-10-26T04:00:46;16.80;99.90
60909;DHT22;46780;48.128;-1.704;2022-10-26T04:03:13;16.80;99.90
60909;DHT22;46780;48.128;-1.704;2022-10-26T04:05:39;16.80;99.90
60909;DHT22;46780;48.128;-1.704;2022-10-26T04:08:07;16.90;99.90
60909;DHT22;46780;48.128;-1.704;2022-10-26T04:10:34;16.60;99.90
60909;DHT22;46780;48.128;-1.704;2022-10-26T04:13:00;16.70;99.90
60909;DHT22;46780;48.128;-1.704;2022-10-26T04:15:27;16.60;99.90
60909;DHT22;46780;48.128;-1.704;2022-10-26T04:17:55;16.70;99.90
60909;DHT22;46780;48.128;-1.704;2022-10-26T04:20:22;16.60;99.90
60909;DHT22;46780;48.128;-1.704;2022-10-26T04:22:56;16.70;99.90
60909;DHT22;46780;48.128;-1.704;2022-10-26T04:25:24;16.70;99.90
60909;DHT22;46780;48.128;-1.704;2022-10-26T04:27:50;16.70;99.90
60909;DHT22;46780;48.128;-1.704;2022-10-26T04:30:17;16.70;99.90
60909;DHT22;46780;48.128;-1.704;2022-10-26T04:32:44;16.70;99.90
60909;DHT22;46780;48.128;-1.704;2022-10-26T04:35:10;16.60;99.90
60909;DHT22;46780;48.128;-1.704;2022-10-26T04:37:37;16.70;99.90
60909;DHT22;46780;48.128;-1.704;2022-10-26T04:40:04;16.60;99.90
60909;DHT22;46780;48.128;-1.704;2022-10-26T04:42:39;16.80;99.90
60909;DHT22;46780;48.128;-1.704;2022-10-26T04:45:07;16.60;99.90
60909;DHT22;46780;48.128;-1.704;2022-10-26T04:47:33;16.60;99.90
60909;DHT22;46780;48.128;-1.704;2022-10-26T04:50:00;16.70;99.90
60909;DHT22;46780;48.128;-1.704;2022-10-26T04:52:41;16.70;99.90
60909;DHT22;46780;48.128;-1.704;2022-10-26T04:55:13;16.60;99.90
60909;DHT22;46780;48.128;-1.704;2022-10-26T04:57:46;16.60;99.90
60909;DHT22;46780;48.128;-1.704;2022-10-26T05:00:17;16.50;99.90
60909;DHT22;46780;48.128;-1.704;2022-10-26T05:09:53;16.50;99.90
60909;DHT22;46780;48.128;-1.704;2022-10-26T05:12:32;17.00;99.90
60909;DHT22;46780;48.128;-1.704;2022-10-26T05:18:15;16.60;99.90
60909;DHT22;46780;48.128;-1.704;2022-10-26T05:20:42;16.60;99.90
60909;DHT22;46780;48.128;-1.704;2022-10-26T05:23:21;16.60;99.90
60909;DHT22;46780;48.128;-1.704;2022-10-26T05:29:37;16.60;99.90
60909;DHT22;46780;48.128;-1.704;2022-10-26T05:38:36;16.50;99.90
60909;DHT22;46780;48.128;-1.704;2022-10-26T05:42:32;16.60;99.90
60909;DHT22;46780;48.128;-1.704;2022-10-26T05:44:39;16.70;99.90
60909;DHT22;46780;48.128;-1.704;2022-10-26T05:47:08;16.70;99.90
60909;DHT22;46780;48.128;-1.704;2022-10-26T05:49:54;16.10;99.90
60909;DHT22;46780;48.128;-1.704;2022-10-26T05:53:24;16.50;99.90
60909;DHT22;46780;48.128;-1.704;2022-10-26T05:55:47;16.80;99.90
60909;DHT22;46780;48.128;-1.704;2022-10-26T05:58:16;16.80;99.90
60909;DHT22;46780;48.128;-1.704;2022-10-26T06:03:47;16.30;99.90
60909;DHT22;46780;48.128;-1.704;2022-10-26T06:06:21;16.80;99.90
60909;DHT22;46780;48.128;-1.704;2022-10-26T06:08:49;17.20;99.90
60909;DHT22;46780;48.128;-1.704;2022-10-26T06:11:18;17.00;99.90
60909;DHT22;46780;48.128;-1.704;2022-10-26T06:13:45;16.90;99.80
60909;DHT22;46780;48.128;-1.704;2022-10-26T06:16:24;17.00;99.60
60909;DHT22;46780;48.128;-1.704;2022-10-26T06:19:02;17.10;99.30
60909;DHT22;46780;48.128;-1.704;2022-10-26T06:21:48;16.80;99.20
60909;DHT22;46780;48.128;-1.704;2022-10-26T06:24:23;17.40;99.50
60909;DHT22;46780;48.128;-1.704;2022-10-26T06:27:01;17.00;98.90
60909;DHT22;46780;48.128;-1.704;2022-10-26T06:29:40;17.30;99.10
60909;DHT22;46780;48.128;-1.704;2022-10-26T06:35:22;17.00;99.30
60909;DHT22;46780;48.128;-1.704;2022-10-26T06:39:22;17.50;98.70
60909;DHT22;46780;48.128;-1.704;2022-10-26T06:41:21;16.80;98.30
60909;DHT22;46780;48.128;-1.704;2022-10-26T06:43:50;17.20;99.20
60909;DHT22;46780;48.128;-1.704;2022-10-26T06:46:24;17.00;98.70
60909;DHT22;46780;48.128;-1.704;2022-10-26T06:48:57;17.00;98.50
60909;DHT22;46780;48.128;-1.704;2022-10-26T06:51:26;17.00;98.70
60909;DHT22;46780;48.128;-1.704;2022-10-26T06:53:59;16.90;98.60
60909;DHT22;46780;48.128;-1.704;2022-10-26T06:56:27;17.10;98.70
60909;DHT22;46780;48.128;-1.704;2022-10-26T06:59:03;17.10;98.80
60909;DHT22;46780;48.128;-1.704;2022-10-26T07:01:32;16.90;98.40
60909;DHT22;46780;48.128;-1.704;2022-10-26T07:03:58;17.00;98.50
60909;DHT22;46780;48.128;-1.704;2022-10-26T07:06:25;17.10;98.80
60909;DHT22;46780;48.128;-1.704;2022-10-26T07:08:51;17.10;98.50
60909;DHT22;46780;48.128;-1.704;2022-10-26T07:11:18;17.10;98.40
60909;DHT22;46780;48.128;-1.704;2022-10-26T07:13:44;17.10;98.50
60909;DHT22;46780;48.128;-1.704;2022-10-26T07:16:12;17.00;98.40
60909;DHT22;46780;48.128;-1.704;2022-10-26T07:18:39;17.20;98.60
60909;DHT22;46780;48.128;-1.704;2022-10-26T07:21:05;17.10;98.20
60909;DHT22;46780;48.128;-1.704;2022-10-26T07:23:32;17.30;98.20
60909;DHT22;46780;48.128;-1.704;2022-10-26T07:25:59;17.30;98.10
60909;DHT22;46780;48.128;-1.704;2022-10-26T07:28:31;17.60;98.20
60909;DHT22;46780;48.128;-1.704;2022-10-26T07:31:00;17.60;97.80
60909;DHT22;46780;48.128;-1.704;2022-10-26T07:33:28;18.20;97.40
60909;DHT22;46780;48.128;-1.704;2022-10-26T07:36:07;17.80;96.90
60909;DHT22;46780;48.128;-1.704;2022-10-26T07:38:42;17.90;97.00
60909;DHT22;46780;48.128;-1.704;2022-10-26T07:41:56;18.20;97.10
60909;DHT22;46780;48.128;-1.704;2022-10-26T07:47:52;18.90;95.50
60909;DHT22;46780;48.128;-1.704;2022-10-26T07:50:20;18.20;95.00
60909;DHT22;46780;48.128;-1.704;2022-10-26T07:52:49;18.90;94.30
60909;DHT22;46780;48.128;-1.704;2022-10-26T07:55:16;19.20;94.00
60909;DHT22;46780;48.128;-1.704;2022-10-26T07:57:42;19.30;93.40
60909;DHT22;46780;48.128;-1.704;2022-10-26T08:00:10;19.20;92.90
60909;DHT22;46780;48.128;-1.704;2022-10-26T08:02:36;19.50;92.70
60909;DHT22;46780;48.128;-1.704;2022-10-26T08:05:04;19.80;92.30
60909;DHT22;46780;48.128;-1.704;2022-10-26T08:07:32;20.20;92.20
60909;DHT22;46780;48.128;-1.704;2022-10-26T08:09:58;20.60;91.30
60909;DHT22;46780;48.128;-1.704;2022-10-26T08:12:25;20.90;90.60
60909;DHT22;46780;48.128;-1.704;2022-10-26T08:14:51;21.10;89.00
60909;DHT22;46780;48.128;-1.704;2022-10-26T08:17:18;20.90;88.90
60909;DHT22;46780;48.128;-1.704;2022-10-26T08:19:46;20.60;89.20
60909;DHT22;46780;48.128;-1.704;2022-10-26T08:22:13;20.20;90.20
60909;DHT22;46780;48.128;-1.704;2022-10-26T08:24:41;19.80;91.10
60909;DHT22;46780;48.128;-1.704;2022-10-26T08:27:08;19.50;91.50
60909;DHT22;46780;48.128;-1.704;2022-10-26T08:29:34;19.40;92.50
60909;DHT22;46780;48.128;-1.704;2022-10-26T08:32:01;19.20;92.60
60909;DHT22;46780;48.128;-1.704;2022-10-26T08:34:28;19.10;93.00
60909;DHT22;46780;48.128;-1.704;2022-10-26T08:36:54;19.40;93.80
60909;DHT22;46780;48.128;-1.704;2022-10-26T08:39:21;19.60;93.20
60909;DHT22;46780;48.128;-1.704;2022-10-26T08:41:51;19.70;92.60
60909;DHT22;46780;48.128;-1.704;2022-10-26T08:44:23;19.70;92.40
60909;DHT22;46780;48.128;-1.704;2022-10-26T08:46:54;19.70;92.40
60909;DHT22;46780;48.128;-1.704;2022-10-26T08:49:25;19.30;93.00
60909;DHT22;46780;48.128;-1.704;2022-10-26T08:51:55;19.20;93.40
60909;DHT22;46780;48.128;-1.704;2022-10-26T08:54:31;19.10;93.90
60909;DHT22;46780;48.128;-1.704;2022-10-26T08:57:07;19.20;94.00
60909;DHT22;46780;48.128;-1.704;2022-10-26T08:59:39;19.20;94.40
60909;DHT22;46780;48.128;-1.704;2022-10-26T09:02:11;19.10;94.60
60909;DHT22;46780;48.128;-1.704;2022-10-26T09:04:39;18.90;94.90
60909;DHT22;46780;48.128;-1.704;2022-10-26T09:07:11;18.80;95.50
60909;DHT22;46780;48.128;-1.704;2022-10-26T09:09:46;18.60;95.70
60909;DHT22;46780;48.128;-1.704;2022-10-26T09:12:23;18.70;96.30
60909;DHT22;46780;48.128;-1.704;2022-10-26T09:15:02;18.50;96.60
60909;DHT22;46780;48.128;-1.704;2022-10-26T09:17:51;18.40;96.70
60909;DHT22;46780;48.128;-1.704;2022-10-26T09:20:54;18.50;96.90
60909;DHT22;46780;48.128;-1.704;2022-10-26T09:23:50;18.40;97.30
60909;DHT22;46780;48.128;-1.704;2022-10-26T09:26:28;18.20;97.70
60909;DHT22;46780;48.128;-1.704;2022-10-26T09:29:00;18.20;98.40
60909;DHT22;46780;48.128;-1.704;2022-10-26T09:31:28;18.00;98.70
60909;DHT22;46780;48.128;-1.704;2022-10-26T09:33:55;18.10;99.40
60909;DHT22;46780;48.128;-1.704;2022-10-26T09:36:22;18.00;99.90
60909;DHT22;46780;48.128;-1.704;2022-10-26T09:39:27;17.80;99.90
60909;DHT22;46780;48.128;-1.704;2022-10-26T09:41:59;17.80;99.90
60909;DHT22;46780;48.128;-1.704;2022-10-26T09:44:37;18.20;99.90
60909;DHT22;46780;48.128;-1.704;2022-10-26T09:47:11;17.80;99.90
60909;DHT22;46780;48.128;-1.704;2022-10-26T09:49:44;18.10;99.90
60909;DHT22;46780;48.128;-1.704;2022-10-26T09:52:36;17.70;99.90
60909;DHT22;46780;48.128;-1.704;2022-10-26T09:55:18;18.00;99.90
60909;DHT22;46780;48.128;-1.704;2022-10-26T10:00:44;17.50;99.50
60909;DHT22;46780;48.128;-1.704;2022-10-26T10:03:23;17.80;99.90
60909;DHT22;46780;48.128;-1.704;2022-10-26T10:05:50;17.80;99.90
60909;DHT22;46780;48.128;-1.704;2022-10-26T10:08:19;17.70;99.30
60909;DHT22;46780;48.128;-1.704;2022-10-26T10:10:56;17.80;99.20
60909;DHT22;46780;48.128;-1.704;2022-10-26T10:13:44;18.00;99.70
60909;DHT22;46780;48.128;-1.704;2022-10-26T10:16:30;18.00;99.90
60909;DHT22;46780;48.128;-1.704;2022-10-26T10:19:21;17.90;99.90
60909;DHT22;46780;48.128;-1.704;2022-10-26T10:21:50;17.80;99.90
60909;DHT22;46780;48.128;-1.704;2022-10-26T10:24:31;17.80;99.90
60909;DHT22;46780;48.128;-1.704;2022-10-26T10:27:01;18.00;99.90
60909;DHT22;46780;48.128;-1.704;2022-10-26T10:29:29;17.80;99.50
60909;DHT22;46780;48.128;-1.704;2022-10-26T10:31:59;18.00;99.70
60909;DHT22;46780;48.128;-1.704;2022-10-26T10:34:26;18.00;99.90
60909;DHT22;46780;48.128;-1.704;2022-10-26T10:37:12;17.90;99.90
60909;DHT22;46780;48.128;-1.704;2022-10-26T10:40:57;17.90;99.90
60909;DHT22;46780;48.128;-1.704;2022-10-26T10:43:05;17.90;99.90
60909;DHT22;46780;48.128;-1.704;2022-10-26T10:45:32;17.80;99.90
60909;DHT22;46780;48.128;-1.704;2022-10-26T10:48:27;18.00;99.90
60909;DHT22;46780;48.128;-1.704;2022-10-26T10:53:43;18.20;99.90
60909;DHT22;46780;48.128;-1.704;2022-10-26T10:56:23;18.00;99.90
60909;DHT22;46780;48.128;-1.704;2022-10-26T10:59:47;18.00;99.90
60909;DHT22;46780;48.128;-1.704;2022-10-26T11:05:47;17.70;99.90
60909;DHT22;46780;48.128;-1.704;2022-10-26T11:08:21;17.70;99.90
60909;DHT22;46780;48.128;-1.704;2022-10-26T11:10:58;17.60;99.90
60909;DHT22;46780;48.128;-1.704;2022-10-26T11:13:31;17.90;99.90
60909;DHT22;46780;48.128;-1.704;2022-10-26T11:16:01;18.00;99.90
60909;DHT22;46780;48.128;-1.704;2022-10-26T11:18:32;18.00;99.90
60909;DHT22;46780;48.128;-1.704;2022-10-26T11:21:10;18.20;99.90
60909;DHT22;46780;48.128;-1.704;2022-10-26T11:23:44;18.50;99.90
60909;DHT22;46780;48.128;-1.704;2022-10-26T11:26:16;19.00;99.90
60909;DHT22;46780;48.128;-1.704;2022-10-26T11:29:00;18.90;99.90
60909;DHT22;46780;48.128;-1.704;2022-10-26T11:31:30;19.20;99.90
60909;DHT22;46780;48.128;-1.704;2022-10-26T11:34:18;19.10;99.90
60909;DHT22;46780;48.128;-1.704;2022-10-26T11:37:02;19.00;99.90
60909;DHT22;46780;48.128;-1.704;2022-10-26T11:39:42;19.10;99.90
60909;DHT22;46780;48.128;-1.704;2022-10-26T11:42:21;19.20;99.90
60909;DHT22;46780;48.128;-1.704;2022-10-26T11:44:52;19.40;99.80
60909;DHT22;46780;48.128;-1.704;2022-10-26T11:47:27;19.90;99.20
60909;DHT22;46780;48.128;-1.704;2022-10-26T11:50:00;19.90;99.30
60909;DHT22;46780;48.128;-1.704;2022-10-26T11:52:36;19.90;98.60
60909;DHT22;46780;48.128;-1.704;2022-10-26T11:55:03;19.90;98.90
60909;DHT22;46780;48.128;-1.704;2022-10-26T11:57:32;20.10;99.10
60909;DHT22;46780;48.128;-1.704;2022-10-26T12:00:03;20.30;98.30
60909;DHT22;46780;48.128;-1.704;2022-10-26T12:02:31;20.50;97.60
60909;DHT22;46780;48.128;-1.704;2022-10-26T12:05:04;20.50;97.50
60909;DHT22;46780;48.128;-1.704;2022-10-26T12:07:48;20.60;97.90
60909;DHT22;46780;48.128;-1.704;2022-10-26T12:10:25;20.90;98.30
60909;DHT22;46780;48.128;-1.704;2022-10-26T12:13:06;21.10;98.50
60909;DHT22;46780;48.128;-1.704;2022-10-26T12:15:47;21.40;97.20
60909;DHT22;46780;48.128;-1.704;2022-10-26T12:18:19;21.70;96.70
60909;DHT22;46780;48.128;-1.704;2022-10-26T12:21:16;21.50;96.90
60909;DHT22;46780;48.128;-1.704;2022-10-26T12:24:28;21.60;97.30
60909;DHT22;46780;48.128;-1.704;2022-10-26T12:30:22;21.80;96.70
60909;DHT22;46780;48.128;-1.704;2022-10-26T12:32:53;21.80;97.20
60909;DHT22;46780;48.128;-1.704;2022-10-26T12:35:50;21.70;98.00
60909;DHT22;46780;48.128;-1.704;2022-10-26T12:38:56;21.20;97.40
60909;DHT22;46780;48.128;-1.704;2022-10-26T12:45:06;20.90;96.30
60909;DHT22;46780;48.128;-1.704;2022-10-26T12:48:03;20.70;96.20
60909;DHT22;46780;48.128;-1.704;2022-10-26T12:50:30;20.40;96.30
60909;DHT22;46780;48.128;-1.704;2022-10-26T12:53:20;20.50;97.00
60909;DHT22;46780;48.128;-1.704;2022-10-26T12:56:04;20.40;96.80
60909;DHT22;46780;48.128;-1.704;2022-10-26T12:59:05;20.70;96.90
60909;DHT22;46780;48.128;-1.704;2022-10-26T13:02:02;20.40;97.40
60909;DHT22;46780;48.128;-1.704;2022-10-26T13:05:03;20.60;97.60
60909;DHT22;46780;48.128;-1.704;2022-10-26T13:07:43;21.00;97.40
60909;DHT22;46780;48.128;-1.704;2022-10-26T13:10:30;21.10;96.50
60909;DHT22;46780;48.128;-1.704;2022-10-26T13:13:00;21.20;96.40
60909;DHT22;46780;48.128;-1.704;2022-10-26T13:15:53;21.20;95.80
60909;DHT22;46780;48.128;-1.704;2022-10-26T13:29:24;21.50;95.70
60909;DHT22;46780;48.128;-1.704;2022-10-26T13:35:57;21.90;94.90
60909;DHT22;46780;48.128;-1.704;2022-10-26T13:38:28;21.60;95.30
60909;DHT22;46780;48.128;-1.704;2022-10-26T13:41:04;21.50;95.50
60909;DHT22;46780;48.128;-1.704;2022-10-26T13:43:31;21.90;97.10
60909;DHT22;46780;48.128;-1.704;2022-10-26T13:46:00;22.20;92.70
60909;DHT22;46780;48.128;-1.704;2022-10-26T13:48:34;22.50;91.60
60909;DHT22;46780;48.128;-1.704;2022-10-26T13:51:03;22.80;90.30
60909;DHT22;46780;48.128;-1.704;2022-10-26T13:53:49;23.10;89.00
60909;DHT22;46780;48.128;-1.704;2022-10-26T13:56:23;23.30;87.90
60909;DHT22;46780;48.128;-1.704;2022-10-26T13:58:56;23.30;86.10
60909;DHT22;46780;48.128;-1.704;2022-10-26T14:01:25;23.20;85.70
60909;DHT22;46780;48.128;-1.704;2022-10-26T14:03:52;23.40;87.10
60909;DHT22;46780;48.128;-1.704;2022-10-26T14:06:23;23.40;85.20
60909;DHT22;46780;48.128;-1.704;2022-10-26T14:08:53;23.60;84.50
60909;DHT22;46780;48.128;-1.704;2022-10-26T14:11:33;23.80;85.40
60909;DHT22;46780;48.128;-1.704;2022-10-26T14:14:13;24.10;83.70
60909;DHT22;46780;48.128;-1.704;2022-10-26T14:16:44;24.40;82.40
60909;DHT22;46780;48.128;-1.704;2022-10-26T14:19:14;24.70;82.20
60909;DHT22;46780;48.128;-1.704;2022-10-26T14:21:42;24.30;81.20
60909;DHT22;46780;48.128;-1.704;2022-10-26T14:24:21;24.20;81.30
60909;DHT22;46780;48.128;-1.704;2022-10-26T14:26:48;24.30;82.30
60909;DHT22;46780;48.128;-1.704;2022-10-26T14:29:17;24.30;82.20
60909;DHT22;46780;48.128;-1.704;2022-10-26T14:31:45;24.20;81.00
60909;DHT22;46780;48.128;-1.704;2022-10-26T14:34:12;24.20;79.20
60909;DHT22;46780;48.128;-1.704;2022-10-26T14:36:42;24.10;79.30
60909;DHT22;46780;48.128;-1.704;2022-10-26T14:39:16;23.90;79.00
60909;DHT22;46780;48.128;-1.704;2022-10-26T14:41:45;24.10;78.50
60909;DHT22;46780;48.128;-1.704;2022-10-26T14:44:16;24.00;78.50
60909;DHT22;46780;48.128;-1.704;2022-10-26T14:46:45;23.90;79.30
60909;DHT22;46780;48.128;-1.704;2022-10-26T14:49:17;23.90;80.10
60909;DHT22;46780;48.128;-1.704;2022-10-26T14:51:44;23.80;79.80
60909;DHT22;46780;48.128;-1.704;2022-10-26T14:54:19;23.70;80.30
60909;DHT22;46780;48.128;-1.704;2022-10-26T14:56:46;23.80;80.90
60909;DHT22;46780;48.128;-1.704;2022-10-26T14:59:21;23.70;79.80
60909;DHT22;46780;48.128;-1.704;2022-10-26T15:01:53;23.60;80.40
60909;DHT22;46780;48.128;-1.704;2022-10-26T15:04:29;23.40;80.80
60909;DHT22;46780;48.128;-1.704;2022-10-26T15:07:15;23.30;81.20
60909;DHT22;46780;48.128;-1.704;2022-10-26T15:09:43;22.90;81.90
60909;DHT22;46780;48.128;-1.704;2022-10-26T15:12:22;22.70;82.80
60909;DHT22;46780;48.128;-1.704;2022-10-26T15:14:50;22.70;83.30
60909;DHT22;46780;48.128;-1.704;2022-10-26T15:17:22;22.80;84.10
60909;DHT22;46780;48.128;-1.704;2022-10-26T15:19:50;22.70;83.40
60909;DHT22;46780;48.128;-1.704;2022-10-26T15:22:22;22.90;83.50
60909;DHT22;46780;48.128;-1.704;2022-10-26T15:24:51;22.70;82.30
60909;DHT22;46780;48.128;-1.704;2022-10-26T15:27:18;22.80;82.00
60909;DHT22;46780;48.128;-1.704;2022-10-26T15:29:47;22.80;81.30
60909;DHT22;46780;48.128;-1.704;2022-10-26T15:32:27;22.70;81.30
60909;DHT22;46780;48.128;-1.704;2022-10-26T15:37:56;22.50;82.90
60909;DHT22;46780;48.128;-1.704;2022-10-26T15:40:24;22.40;82.90
60909;DHT22;46780;48.128;-1.704;2022-10-26T15:42:52;22.40;83.20
60909;DHT22;46780;48.128;-1.704;2022-10-26T15:45:20;22.20;83.30
60909;DHT22;46780;48.128;-1.704;2022-10-26T15:47:49;22.20;83.30
60909;DHT22;46780;48.128;-1.704;2022-10-26T15:50:18;22.10;83.70
60909;DHT22;46780;48.128;-1.704;2022-10-26T15:52:44;21.90;84.50
60909;DHT22;46780;48.128;-1.704;2022-10-26T15:55:11;21.80;85.20
60909;DHT22;46780;48.128;-1.704;2022-10-26T15:57:38;21.80;85.60
60909;DHT22;46780;48.128;-1.704;2022-10-26T16:00:06;21.70;86.00
60909;DHT22;46780;48.128;-1.704;2022-10-26T16:02:33;21.90;85.30
60909;DHT22;46780;48.128;-1.704;2022-10-26T16:05:03;21.80;85.50
60909;DHT22;46780;48.128;-1.704;2022-10-26T16:07:29;21.70;85.90
60909;DHT22;46780;48.128;-1.704;2022-10-26T16:09:56;21.70;86.00
60909;DHT22;46780;48.128;-1.704;2022-10-26T16:12:22;21.60;86.90
60909;DHT22;46780;48.128;-1.704;2022-10-26T16:14:49;21.60;87.40
60909;DHT22;46780;48.128;-1.704;2022-10-26T16:17:15;21.40;87.00
60909;DHT22;46780;48.128;-1.704;2022-10-26T16:19:41;21.40;87.20
60909;DHT22;46780;48.128;-1.704;2022-10-26T16:22:09;21.50;87.20
60909;DHT22;46780;48.128;-1.704;2022-10-26T16:24:36;21.50;87.50
60909;DHT22;46780;48.128;-1.704;2022-10-26T16:27:03;21.60;88.60
60909;DHT22;46780;48.128;-1.704;2022-10-26T16:29:30;21.40;88.20
60909;DHT22;46780;48.128;-1.704;2022-10-26T16:31:56;21.40;88.30
60909;DHT22;46780;48.128;-1.704;2022-10-26T16:34:23;21.40;89.50
60909;DHT22;46780;48.128;-1.704;2022-10-26T16:36:57;21.20;89.40
60909;DHT22;46780;48.128;-1.704;2022-10-26T16:39:25;21.10;89.30
60909;DHT22;46780;48.128;-1.704;2022-10-26T16:41:53;21.00;90.10
60909;DHT22;46780;48.128;-1.704;2022-10-26T16:44:19;21.00;90.30
60909;DHT22;46780;48.128;-1.704;2022-10-26T16:46:46;20.90;89.90
60909;DHT22;46780;48.128;-1.704;2022-10-26T16:49:12;20.80;90.40
60909;DHT22;46780;48.128;-1.704;2022-10-26T16:51:52;20.70;90.30
60909;DHT22;46780;48.128;-1.704;2022-10-26T16:54:19;21.00;90.40
60909;DHT22;46780;48.128;-1.704;2022-10-26T16:56:47;20.10;91.00
60909;DHT22;46780;48.128;-1.704;2022-10-26T16:59:13;20.60;90.80